Tikaboo Peak, Nevada Weather observations

Data are for 10 minute period ending at time listed.
 Day   Time   Solar   Ave.   Ave.  Ave.  Vector  Max.   Baro.   Total    
  of    of     Rad.   Air    Rel.  Wind   Wind   Wind  Press.  Precip.   
Year   Day            Temp.  Hum.  Speed  Dir.   Gust                    
2026   (PST)  Kw/m2    F      %     mph   deg.    mph    mb.     in.     
-------------------------------------------------------------------------
 129   15:40   0.61   74.6    11    2.5    98    14.8   763.9    0.00 
 129   15:50   0.57   73.9    11    3.7    71    15.3   763.8    0.00 
 129   16:00   0.54   72.4    11    3.6    64    17.8   763.8    0.00 
 129   16:10   0.50   72.0    11    1.7   119     9.8   763.8    0.00 
 129   16:20   0.46   70.6    11    3.6    80    11.6   763.6    0.00 
 129   16:30   0.42   70.1    11    4.1    85    17.2   763.5    0.00 
 129   16:40   0.37   70.9    10    3.1    76    13.5   763.4    0.00 
 129   16:50   0.34   70.0    10    4.6    92    14.4   763.3    0.00 
 129   17:00   0.30   68.5    11    3.4    71    14.7   763.5    0.00 
 129   17:10   0.25   67.5    11    3.9    63    13.4   763.4    0.00 
 129   17:20   0.19   67.5    11    1.8   348    10.0   766.7    0.00 
 129   17:30   0.17   67.5    11    5.2    85    18.3   763.4    0.00 
 129   17:40   0.11   67.2    10    7.5    93    17.5   763.5    0.00 
 129   17:50   0.07   66.6    11   11.0    96    20.8   763.5    0.00 
 129   18:00   0.07   66.1    14    5.1    86    15.8   763.7    0.00 
 129   18:10   0.06   65.8    15    8.7    94    15.2   763.5    0.00 
 129   18:20   0.04   65.5    15   13.2   111    23.6   763.6    0.00 
 129   18:30   0.03   65.3    14   14.8   118    23.6   763.6    0.00 
 129   18:40   0.02   64.8    14   18.3   125    29.1   763.6    0.00 
 129   18:50   0.01   64.2    14   18.9   131    26.8   763.6    0.00 
 129   19:00   0.00   63.7    13   20.9   135    28.6   763.7    0.00 
 129   19:10   0.00   63.4    13   22.6   136    30.2   763.6    0.00 
 129   19:20   0.00   63.2    12   21.4   139    28.5   763.7    0.00 
 129   19:30   0.00   63.0    12   21.3   142    28.7   763.8    0.00 
 129   19:40   0.00   62.8    11   23.7   144    29.7   763.9    0.00 
 129   19:50   0.00   62.8    10   23.4   147    31.1   764.1    0.00 
 129   20:00   0.00   62.8     9   22.1   147    28.5   764.2    0.00 
 129   20:10   0.00   62.7     9   21.8   145    27.5   764.2    0.00 
 129   20:20   0.00   62.6     8   23.3   145    27.8   764.3    0.00 
 129   20:30   0.00   62.4     8   23.2   143    30.5   764.3    0.00 
 129   20:40   0.00   62.3     9   25.1   144    30.8   764.3    0.00 
 129   20:50   0.00   62.2     9   24.0   144    29.7   764.4    0.00 
 129   21:00   0.00   62.2     9   24.0   146    28.2   764.5    0.00 
 129   21:10   0.00   62.2     9   24.5   146    29.7   764.5    0.00 
 129   21:20   0.00   62.2     9   25.1   147    31.6   764.5    0.00 
 129   21:30   0.00   62.1     9   23.7   146    29.5   764.5    0.00 
 129   21:40   0.00   61.9    10   23.0   150    28.6   764.5    0.00 
 129   21:50   0.00   61.8    10   23.6   154    28.6   764.6    0.00 
 129   22:00   0.00   61.9    10   21.9   148    29.8   764.7    0.00 
 129   22:10   0.00   61.7    10   22.7   148    31.7   764.6    0.00 
 129   22:20   0.00   61.3    11   23.1   148    28.4   764.6    0.00 
 129   22:30   0.00   61.2    11   24.3   149    28.9   764.6    0.00 
 129   22:40   0.00   60.7    12   24.0   150    28.1   764.7    0.00 
 129   22:50   0.00   60.5    12   24.0   150    29.5   764.7    0.00 
 129   23:00   0.00   60.3    12   25.0   150    34.8   764.7    0.00 
 129   23:10   0.00   59.4    12   24.0   152    34.1   764.7    0.00 
 129   23:20   0.00   58.9    11   28.6   152    34.8   764.6    0.00 
 129   23:30   0.00   58.5    12   26.5   154    33.6   764.7    0.00 
 129   23:40   0.00   58.1    12   24.8   155    32.9   764.8    0.00 
 129   23:50   0.00   57.7    13   24.2   156    30.9   764.8    0.00 
 130    0:00   0.00   57.3    13   24.2   160    28.4   764.8    0.00 
 130    0:10   0.00   56.9    14   20.9   160    26.5   764.8    0.00 
 130    0:20   0.00   56.8    15   19.2   164    25.1   764.9    0.00 
 130    0:30   0.00   56.7    15   20.9   161    26.3   764.9    0.00 
 130    0:40   0.00   56.5    15   20.2   163    24.3   764.9    0.00 
 130    0:50   0.00   56.4    16   20.1   159    25.3   764.9    0.00 
 130    1:00   0.00   56.3    16   19.5   161    26.6   764.8    0.00 
 130    1:10   0.00   55.9    17   20.6   162    28.1   764.9    0.00 
 130    1:20   0.00   55.7    16   20.6   164    26.9   764.9    0.00 
 130    1:30   0.00   55.7    16   20.9   168    24.9   765.0    0.00 
 130    1:40   0.00   55.6    16   20.6   165    24.8   765.0    0.00 
 130    1:50   0.00   55.7    15   19.9   165    24.3   765.1    0.00 
 130    2:00   0.00   55.5    16   20.6   166    25.2   765.0    0.00 
 130    2:10   0.00   55.2    16   21.7   167    27.0   765.0    0.00 
 130    2:20   0.00   55.0    16   22.2   168    28.4   765.1    0.00 
 130    2:30   0.00   55.0    16   22.3   168    27.4   765.1    0.00 
 130    2:40   0.00   54.9    16   23.2   172    28.6   765.1    0.00 
 130    2:50   0.00   54.8    16   22.7   170    27.2   765.2    0.00 
 130    3:00   0.00   54.6    16   22.8   173    29.0   765.1    0.00 
 130    3:10   0.00   54.4    15   23.7   172    28.8   765.2    0.00 
 130    3:20   0.00   54.4    14   22.0   172    27.8   765.3    0.00 
 130    3:30   0.00   54.4    15   19.5   172    24.8   765.3    0.00 
 130    3:40   0.00   54.1    15   18.3   171    24.3   765.3    0.00 
 130    3:50   0.00   54.2    15   18.9   176    23.9   765.4    0.00 
 130    4:00   0.00   54.1    15   18.1   186    21.8   765.3    0.00 
 130    4:10   0.00   53.7    15   14.1   207    20.0   765.5    0.00 
 130    4:20   0.00   53.5    15   14.1   219    19.5   765.5    0.00 
 130    4:30   0.00   54.8    15   14.8   207    20.3   765.6    0.00 
 130    4:40   0.00   54.8    15   15.4   188    21.6   765.7    0.00 
 130    4:50   0.01   54.6    14   17.8   175    23.2   765.7    0.00 
 130    5:00   0.03   54.9    14   17.4   169    23.5   765.7    0.00 
 130    5:10   0.05   54.5    14   14.6   172    20.0   765.7    0.00 
 130    5:20   0.08   55.0    14   14.8   178    20.0   765.8    0.00 
 130    5:30   0.11   55.1    13   16.0   174    19.8   765.9    0.00 
 130    5:40   0.14   55.8    13   13.6   181    22.1   766.1    0.00 
 130    5:50   0.17   56.5    13   13.9   183    20.0   766.1    0.00 
 130    6:00   0.21   56.6    13   12.8   197    18.6   766.2    0.00 
 130    6:10   0.25   57.1    13   13.2   205    19.7   766.3    0.00 
 130    6:20   0.29   58.0    13   11.6   219    15.7   766.5    0.00 
 130    6:30   0.33   58.4    12   11.2   201    17.1   766.6    0.00 
 130    6:40   0.37   58.8    12   14.6   197    18.6   766.6    0.00 
 130    6:50   0.40   59.3    13   11.8   187    17.5   766.7    0.00 
 130    7:00   0.43   59.8    13   11.0   188    13.8   766.7    0.00 
 130    7:10   0.47   60.9    13    9.8   195    12.7   766.8    0.00 
 130    7:20   0.52   61.8    12    8.4   201    12.9   766.9    0.00 
 130    7:30   0.56   63.5    12    6.3   200    10.4   767.0    0.00 
 130    7:40   0.60   63.8    12    5.9   192    10.3   767.0    0.00 
 130    7:50   0.64   63.9    12    6.0   186    13.6   767.0    0.00 
 130    8:00   0.67   63.8    12    9.4   194    14.2   767.0    0.00 
 130    8:10   0.71   63.8    11   11.0   230    15.2   767.0    0.00 
 130    8:20   0.74   64.0    11    8.0   217    14.7   767.1    0.00 
 130    8:30   0.78   66.3    11    7.4   205    15.3   767.2    0.00 
 130    8:40   0.81   65.2    10   11.1   193    18.1   767.2    0.00 
 130    8:50   0.84   63.3    11   12.3   191    18.0   767.2    0.00 
 130    9:00   0.87   63.7    11   10.7   197    16.7   767.4    0.00 
 130    9:10   0.90   63.9    11   10.0   191    15.9   767.3    0.00 
 130    9:20   0.92   64.5    10    8.3   189    14.2   767.4    0.00 
 130    9:30   0.95   65.2    10    7.8   189    13.2   767.4    0.00 
 130    9:40   0.97   65.7    11    5.2   201    11.7   767.4    0.00 
 130    9:50   0.99   67.1    10    4.7   178    11.2   767.4    0.00 
 130   10:00   1.01   66.8    10    3.3   165    10.4   767.5    0.00 
 130   10:10   1.03   67.1    10    4.3   160    11.3   767.5    0.00 
 130   10:20   1.05   68.7    10    3.9   203     9.2   767.5    0.00 
 130   10:30   1.06   69.1     9    2.7   202     7.3   767.6    0.00 
 130   10:40   1.08   70.6    10    1.4   214     4.6   767.6    0.00 
 130   10:50   1.09   71.0     9    4.2   209     8.6   767.5    0.00 
 130   11:00   1.10   70.5    10    3.2   162     7.4   767.6    0.00 
 130   11:10   1.10   69.1    10    2.2    84     6.6   767.5    0.00 
 130   11:20   1.11   70.0    10    2.1    70     6.0   767.4    0.00 
 130   11:30   1.11   71.9     9    2.1    81     7.8   767.4    0.00 
 130   11:40   1.12   72.7     9    2.4    67     6.4   767.4    0.00 
 130   11:50   1.12   73.7     9    3.4    16     9.4   767.4    0.00 
 130   12:00   1.11   74.4     9    2.2    58     9.3   767.5    0.00 
 130   12:10   1.11   74.4     9    3.0    51     7.4   767.5    0.00 
 130   12:20   1.10   74.5     8    2.6    41     9.3   767.5    0.00 
 130   12:30   1.09   74.1     9    4.9    28    10.9   767.6    0.00 
 130   12:40   1.08   74.5     9    4.2   348     9.6   767.5    0.00 
 130   12:50   1.07   75.8     9    1.7    15     6.4   767.5    0.00 
 130   13:00   1.06   77.0     8    2.7    68     7.7   767.5    0.00 
 130   13:10   1.04   76.5     8    4.4    45     9.2   767.5    0.00 
 130   13:20   1.02   76.3     8    2.3   105     9.9   767.4    0.00 
 130   13:30   1.01   76.6     8    2.0    35     5.9   767.4    0.00 
 130   13:40   0.99   76.9     8    2.6    64     6.9   767.3    0.00 
 130   13:50   0.96   76.3     9    4.2    51    11.6   767.3    0.00 
 130   14:00   0.94   76.0     9    2.2    93     6.9   767.2    0.00 
 130   14:10   0.91   74.8     9    1.6    79     7.4   767.1    0.00 
 130   14:20   0.88   76.1     9    1.2    52     5.3   767.1    0.00 
 130   14:30   0.85   74.8     9    2.5   142     9.2   767.0    0.00 
 130   14:40   0.68   74.8     9    2.3   146     6.6   766.9    0.00 
 130   14:50   0.79   74.7     8    3.9    50    11.7   766.8    0.00 
 130   15:00   0.76   76.2     8    3.9    52    12.3   766.8    0.00 
 130   15:10   0.73   76.7     8    2.4    79     9.9   766.9    0.00 
 130   15:20   0.69   75.5     8    3.0    57    11.1   766.8    0.00 
 130   15:30   0.66   74.9     8    2.9    66    10.4   766.8    0.00 

Return to Tikaboo Peak graphs page.


Western Regional Climate Center,wrcc@dri.edu